sensor_id;sensor_type;location;lat;lon;timestamp;pressure;altitude;pressure_sealevel;temperature;humidity
62942;BME280;49042;47.318;19.874;2023-04-30T00:02:54;100287.44;;;11.13;98.96
62942;BME280;49042;47.318;19.874;2023-04-30T00:05:56;100288.44;;;11.18;98.68
62942;BME280;49042;47.318;19.874;2023-04-30T00:08:58;100288.34;;;11.15;98.86
62942;BME280;49042;47.318;19.874;2023-04-30T00:11:59;100281.41;;;11.16;98.91
62942;BME280;49042;47.318;19.874;2023-04-30T00:15:01;100281.41;;;11.16;98.44
62942;BME280;49042;47.318;19.874;2023-04-30T00:18:03;100283.97;;;11.14;98.34
62942;BME280;49042;47.318;19.874;2023-04-30T00:21:07;100285.38;;;11.01;99.01
62942;BME280;49042;47.318;19.874;2023-04-30T00:24:09;100280.19;;;11.02;98.77
62942;BME280;49042;47.318;19.874;2023-04-30T00:27:11;100282.94;;;11.43;96.56
62942;BME280;49042;47.318;19.874;2023-04-30T00:30:12;100288.22;;;11.44;96.44
62942;BME280;49042;47.318;19.874;2023-04-30T00:33:14;100280.87;;;11.29;97.36
62942;BME280;49042;47.318;19.874;2023-04-30T00:36:16;100287.81;;;11.29;96.93
62942;BME280;49042;47.318;19.874;2023-04-30T00:39:18;100284.16;;;11.22;97.75
62942;BME280;49042;47.318;19.874;2023-04-30T00:42:19;100286.72;;;11.20;98.46
62942;BME280;49042;47.318;19.874;2023-04-30T00:45:21;100278.88;;;11.19;97.50
62942;BME280;49042;47.318;19.874;2023-04-30T00:48:24;100278.28;;;11.31;95.83
62942;BME280;49042;47.318;19.874;2023-04-30T00:51:28;100275.38;;;11.54;95.55
62942;BME280;49042;47.318;19.874;2023-04-30T00:54:29;100278.59;;;11.79;94.23
62942;BME280;49042;47.318;19.874;2023-04-30T00:57:32;100270.94;;;11.88;93.34
62942;BME280;49042;47.318;19.874;2023-04-30T01:00:34;100276.81;;;11.78;94.01
62942;BME280;49042;47.318;19.874;2023-04-30T01:03:37;100268.31;;;11.50;95.98
62942;BME280;49042;47.318;19.874;2023-04-30T01:06:39;100271.16;;;11.23;97.38
62942;BME280;49042;47.318;19.874;2023-04-30T01:09:41;100269.72;;;11.01;99.24
62942;BME280;49042;47.318;19.874;2023-04-30T01:12:54;100269.25;;;10.84;100.00
62942;BME280;49042;47.318;19.874;2023-04-30T01:16:27;100270.78;;;10.75;100.00
62942;BME280;49042;47.318;19.874;2023-04-30T01:19:39;100273.09;;;10.97;100.00
62942;BME280;49042;47.318;19.874;2023-04-30T01:26:42;100274.78;;;10.95;99.76
62942;BME280;49042;47.318;19.874;2023-04-30T01:29:49;100280.28;;;11.06;99.73
62942;BME280;49042;47.318;19.874;2023-04-30T01:32:51;100272.50;;;10.75;100.00
62942;BME280;49042;47.318;19.874;2023-04-30T01:36:02;100278.75;;;10.50;100.00
62942;BME280;49042;47.318;19.874;2023-04-30T01:42:47;100280.47;;;10.19;100.00
62942;BME280;49042;47.318;19.874;2023-04-30T01:46:03;100281.66;;;10.00;100.00
62942;BME280;49042;47.318;19.874;2023-04-30T01:49:14;100276.47;;;10.01;100.00
62942;BME280;49042;47.318;19.874;2023-04-30T01:52:35;100279.22;;;10.06;100.00
62942;BME280;49042;47.318;19.874;2023-04-30T01:55:50;100277.19;;;9.97;100.00
62942;BME280;49042;47.318;19.874;2023-04-30T01:58:53;100277.66;;;9.83;100.00
62942;BME280;49042;47.318;19.874;2023-04-30T02:01:56;100273.53;;;9.62;100.00
62942;BME280;49042;47.318;19.874;2023-04-30T02:04:57;100270.22;;;9.68;100.00
62942;BME280;49042;47.318;19.874;2023-04-30T02:07:59;100274.97;;;9.52;100.00
62942;BME280;49042;47.318;19.874;2023-04-30T02:11:01;100270.09;;;9.36;100.00
62942;BME280;49042;47.318;19.874;2023-04-30T02:14:02;100264.53;;;9.25;100.00
62942;BME280;49042;47.318;19.874;2023-04-30T02:17:04;100279.88;;;9.17;100.00
62942;BME280;49042;47.318;19.874;2023-04-30T02:20:07;100279.94;;;9.18;100.00
62942;BME280;49042;47.318;19.874;2023-04-30T02:23:09;100284.34;;;9.21;100.00
62942;BME280;49042;47.318;19.874;2023-04-30T02:26:11;100277.94;;;9.11;100.00
62942;BME280;49042;47.318;19.874;2023-04-30T02:29:13;100278.47;;;9.01;100.00
62942;BME280;49042;47.318;19.874;2023-04-30T02:32:14;100277.28;;;8.92;100.00
62942;BME280;49042;47.318;19.874;2023-04-30T02:35:16;100271.47;;;8.99;100.00
62942;BME280;49042;47.318;19.874;2023-04-30T02:38:18;100266.91;;;8.92;100.00
62942;BME280;49042;47.318;19.874;2023-04-30T02:41:20;100278.47;;;9.01;100.00
62942;BME280;49042;47.318;19.874;2023-04-30T02:44:22;100272.91;;;8.91;100.00
62942;BME280;49042;47.318;19.874;2023-04-30T02:47:24;100281.44;;;8.87;100.00
62942;BME280;49042;47.318;19.874;2023-04-30T02:50:26;100282.50;;;8.92;100.00
62942;BME280;49042;47.318;19.874;2023-04-30T02:53:28;100281.72;;;8.95;100.00
62942;BME280;49042;47.318;19.874;2023-04-30T02:56:29;100285.59;;;9.06;100.00
62942;BME280;49042;47.318;19.874;2023-04-30T02:59:31;100285.59;;;9.06;100.00
62942;BME280;49042;47.318;19.874;2023-04-30T03:02:33;100282.28;;;8.86;100.00
62942;BME280;49042;47.318;19.874;2023-04-30T03:05:35;100287.28;;;8.80;100.00
62942;BME280;49042;47.318;19.874;2023-04-30T03:08:36;100287.06;;;8.50;100.00
62942;BME280;49042;47.318;19.874;2023-04-30T03:11:38;100291.78;;;8.38;100.00
62942;BME280;49042;47.318;19.874;2023-04-30T03:14:40;100286.94;;;8.47;100.00
62942;BME280;49042;47.318;19.874;2023-04-30T03:17:41;100289.38;;;8.65;100.00
62942;BME280;49042;47.318;19.874;2023-04-30T03:20:46;100287.72;;;8.67;100.00
62942;BME280;49042;47.318;19.874;2023-04-30T03:23:48;100289.81;;;8.78;100.00
62942;BME280;49042;47.318;19.874;2023-04-30T03:26:49;100285.53;;;8.80;100.00
62942;BME280;49042;47.318;19.874;2023-04-30T03:29:51;100284.31;;;8.95;100.00
62942;BME280;49042;47.318;19.874;2023-04-30T03:32:53;100285.34;;;9.25;100.00
62942;BME280;49042;47.318;19.874;2023-04-30T03:35:55;100285.81;;;9.39;100.00
62942;BME280;49042;47.318;19.874;2023-04-30T03:38:56;100290.78;;;9.59;100.00
62942;BME280;49042;47.318;19.874;2023-04-30T03:41:58;100289.59;;;9.23;100.00
62942;BME280;49042;47.318;19.874;2023-04-30T03:45:00;100280.75;;;9.17;100.00
62942;BME280;49042;47.318;19.874;2023-04-30T03:48:02;100285.06;;;9.17;100.00
62942;BME280;49042;47.318;19.874;2023-04-30T03:51:04;100287.69;;;9.17;100.00
62942;BME280;49042;47.318;19.874;2023-04-30T03:54:06;100294.75;;;9.21;100.00
62942;BME280;49042;47.318;19.874;2023-04-30T03:57:07;100287.78;;;9.20;100.00
62942;BME280;49042;47.318;19.874;2023-04-30T04:00:11;100307.16;;;9.28;100.00
62942;BME280;49042;47.318;19.874;2023-04-30T04:03:14;100303.84;;;9.34;100.00
62942;BME280;49042;47.318;19.874;2023-04-30T04:06:16;100309.34;;;9.42;100.00
62942;BME280;49042;47.318;19.874;2023-04-30T04:09:18;100310.53;;;9.80;100.00
62942;BME280;49042;47.318;19.874;2023-04-30T04:12:20;100315.72;;;9.78;100.00
62942;BME280;49042;47.318;19.874;2023-04-30T04:15:22;100318.22;;;9.49;100.00
62942;BME280;49042;47.318;19.874;2023-04-30T04:18:24;100322.44;;;9.45;100.00
62942;BME280;49042;47.318;19.874;2023-04-30T04:21:25;100317.53;;;9.55;100.00
62942;BME280;49042;47.318;19.874;2023-04-30T04:24:27;100326.66;;;9.41;100.00
62942;BME280;49042;47.318;19.874;2023-04-30T04:27:29;100328.44;;;9.42;100.00
62942;BME280;49042;47.318;19.874;2023-04-30T04:30:30;100334.12;;;9.57;100.00
62942;BME280;49042;47.318;19.874;2023-04-30T04:33:32;100330.88;;;9.64;100.00
62942;BME280;49042;47.318;19.874;2023-04-30T04:36:34;100330.91;;;9.66;100.00
62942;BME280;49042;47.318;19.874;2023-04-30T04:39:36;100335.41;;;9.70;100.00
62942;BME280;49042;47.318;19.874;2023-04-30T04:42:38;100331.81;;;9.66;100.00
62942;BME280;49042;47.318;19.874;2023-04-30T04:45:39;100326.16;;;9.80;100.00
62942;BME280;49042;47.318;19.874;2023-04-30T04:48:41;100329.81;;;9.85;100.00
62942;BME280;49042;47.318;19.874;2023-04-30T04:51:43;100336.44;;;10.03;100.00
62942;BME280;49042;47.318;19.874;2023-04-30T04:54:45;100348.19;;;10.17;100.00
62942;BME280;49042;47.318;19.874;2023-04-30T04:57:47;100346.88;;;10.32;100.00
62942;BME280;49042;47.318;19.874;2023-04-30T05:00:48;100344.38;;;10.65;100.00
62942;BME280;49042;47.318;19.874;2023-04-30T05:03:50;100334.81;;;10.96;100.00
62942;BME280;49042;47.318;19.874;2023-04-30T05:06:54;100342.34;;;11.18;100.00
62942;BME280;49042;47.318;19.874;2023-04-30T05:09:55;100342.34;;;11.16;100.00
62942;BME280;49042;47.318;19.874;2023-04-30T05:12:57;100349.37;;;11.20;100.00
62942;BME280;49042;47.318;19.874;2023-04-30T05:15:59;100344.94;;;11.16;100.00
62942;BME280;49042;47.318;19.874;2023-04-30T05:19:01;100353.00;;;11.26;100.00
62942;BME280;49042;47.318;19.874;2023-04-30T05:22:03;100347.19;;;11.36;100.00
62942;BME280;49042;47.318;19.874;2023-04-30T05:25:05;100343.16;;;11.49;98.55
62942;BME280;49042;47.318;19.874;2023-04-30T05:28:07;100341.94;;;11.70;98.83
62942;BME280;49042;47.318;19.874;2023-04-30T05:31:09;100339.84;;;11.91;97.31
62942;BME280;49042;47.318;19.874;2023-04-30T05:34:11;100348.03;;;12.06;95.11
62942;BME280;49042;47.318;19.874;2023-04-30T05:37:13;100358.75;;;12.17;95.25
62942;BME280;49042;47.318;19.874;2023-04-30T05:40:15;100367.75;;;12.30;95.04
62942;BME280;49042;47.318;19.874;2023-04-30T05:43:17;100361.34;;;12.56;93.89
62942;BME280;49042;47.318;19.874;2023-04-30T05:46:19;100359.13;;;12.75;86.28
62942;BME280;49042;47.318;19.874;2023-04-30T05:49:21;100363.09;;;13.01;85.52
62942;BME280;49042;47.318;19.874;2023-04-30T05:52:23;100370.50;;;13.21;83.98
62942;BME280;49042;47.318;19.874;2023-04-30T05:55:24;100354.84;;;13.25;83.00
62942;BME280;49042;47.318;19.874;2023-04-30T05:58:26;100365.53;;;13.36;83.81
62942;BME280;49042;47.318;19.874;2023-04-30T06:01:28;100363.16;;;13.51;81.94
62942;BME280;49042;47.318;19.874;2023-04-30T06:04:30;100359.69;;;13.52;82.23
62942;BME280;49042;47.318;19.874;2023-04-30T06:07:32;100361.72;;;13.68;82.22
62942;BME280;49042;47.318;19.874;2023-04-30T06:10:34;100375.16;;;13.89;81.60
62942;BME280;49042;47.318;19.874;2023-04-30T06:13:36;100370.25;;;14.09;81.36
62942;BME280;49042;47.318;19.874;2023-04-30T06:16:37;100377.47;;;14.24;80.04
62942;BME280;49042;47.318;19.874;2023-04-30T06:19:39;100375.03;;;14.39;80.29
62942;BME280;49042;47.318;19.874;2023-04-30T06:22:41;100380.47;;;14.53;80.09
62942;BME280;49042;47.318;19.874;2023-04-30T06:25:42;100384.94;;;14.59;80.40
62942;BME280;49042;47.318;19.874;2023-04-30T06:28:44;100370.81;;;14.50;79.27
62942;BME280;49042;47.318;19.874;2023-04-30T06:31:47;100373.75;;;14.74;78.36
62942;BME280;49042;47.318;19.874;2023-04-30T06:34:48;100377.50;;;14.92;78.22
62942;BME280;49042;47.318;19.874;2023-04-30T06:37:51;100385.72;;;15.22;75.15
62942;BME280;49042;47.318;19.874;2023-04-30T06:40:52;100385.09;;;15.48;76.59
62942;BME280;49042;47.318;19.874;2023-04-30T06:43:54;100388.66;;;15.53;76.75
62942;BME280;49042;47.318;19.874;2023-04-30T06:46:56;100380.69;;;15.45;73.60
62942;BME280;49042;47.318;19.874;2023-04-30T06:49:57;100382.50;;;15.49;75.45
62942;BME280;49042;47.318;19.874;2023-04-30T06:52:59;100385.16;;;15.56;75.92
62942;BME280;49042;47.318;19.874;2023-04-30T06:56:01;100383.47;;;15.61;73.99
62942;BME280;49042;47.318;19.874;2023-04-30T06:59:04;100377.66;;;16.04;73.07
62942;BME280;49042;47.318;19.874;2023-04-30T07:02:06;100375.25;;;16.33;70.93
62942;BME280;49042;47.318;19.874;2023-04-30T07:05:08;100374.53;;;16.56;71.05
62942;BME280;49042;47.318;19.874;2023-04-30T07:08:11;100372.69;;;16.39;70.31
62942;BME280;49042;47.318;19.874;2023-04-30T07:11:13;100375.34;;;16.48;70.53
62942;BME280;49042;47.318;19.874;2023-04-30T07:14:15;100377.19;;;16.61;69.79
62942;BME280;49042;47.318;19.874;2023-04-30T07:17:17;100376.28;;;16.62;69.10
62942;BME280;49042;47.318;19.874;2023-04-30T07:20:18;100384.12;;;16.51;69.19
62942;BME280;49042;47.318;19.874;2023-04-30T07:23:20;100384.16;;;16.54;70.27
62942;BME280;49042;47.318;19.874;2023-04-30T07:26:22;100390.53;;;17.11;68.82
62942;BME280;49042;47.318;19.874;2023-04-30T07:29:26;100381.00;;;17.62;64.28
62942;BME280;49042;47.318;19.874;2023-04-30T07:32:27;100390.47;;;18.90;58.38
62942;BME280;49042;47.318;19.874;2023-04-30T07:35:29;100386.09;;;20.19;50.80
62942;BME280;49042;47.318;19.874;2023-04-30T07:38:31;100398.12;;;22.34;44.95
62942;BME280;49042;47.318;19.874;2023-04-30T07:41:33;100394.06;;;24.52;39.59
62942;BME280;49042;47.318;19.874;2023-04-30T07:44:35;100394.13;;;25.96;35.62
62942;BME280;49042;47.318;19.874;2023-04-30T07:47:36;100393.91;;;28.13;31.42
62942;BME280;49042;47.318;19.874;2023-04-30T07:50:38;100393.28;;;30.52;27.94
62942;BME280;49042;47.318;19.874;2023-04-30T07:53:40;100393.84;;;29.89;28.24
62942;BME280;49042;47.318;19.874;2023-04-30T07:56:42;100387.03;;;27.85;30.66
62942;BME280;49042;47.318;19.874;2023-04-30T07:59:43;100396.81;;;28.49;29.52
62942;BME280;49042;47.318;19.874;2023-04-30T08:02:45;100396.75;;;29.47;27.43
62942;BME280;49042;47.318;19.874;2023-04-30T08:05:49;100401.44;;;33.69;23.03
62942;BME280;49042;47.318;19.874;2023-04-30T08:08:51;100407.00;;;33.39;22.53
62942;BME280;49042;47.318;19.874;2023-04-30T08:11:52;100405.91;;;33.14;22.48
62942;BME280;49042;47.318;19.874;2023-04-30T08:15:02;100407.44;;;35.17;20.47
62942;BME280;49042;47.318;19.874;2023-04-30T08:18:04;100415.84;;;37.03;17.98
62942;BME280;49042;47.318;19.874;2023-04-30T08:21:06;100421.25;;;33.82;21.47
62942;BME280;49042;47.318;19.874;2023-04-30T08:24:08;100412.81;;;36.50;18.97
62942;BME280;49042;47.318;19.874;2023-04-30T08:27:09;100416.25;;;38.60;16.79
62942;BME280;49042;47.318;19.874;2023-04-30T08:30:11;100413.47;;;32.79;21.93
62942;BME280;49042;47.318;19.874;2023-04-30T08:33:13;100411.41;;;33.40;21.77
62942;BME280;49042;47.318;19.874;2023-04-30T08:36:14;100402.38;;;34.22;20.56
62942;BME280;49042;47.318;19.874;2023-04-30T08:39:16;100406.22;;;34.96;20.50
62942;BME280;49042;47.318;19.874;2023-04-30T08:42:20;100415.81;;;37.80;18.16
62942;BME280;49042;47.318;19.874;2023-04-30T08:45:25;100415.59;;;41.13;15.69
62942;BME280;49042;47.318;19.874;2023-04-30T08:48:27;100412.06;;;36.48;18.19
62942;BME280;49042;47.318;19.874;2023-04-30T08:51:32;100407.16;;;35.33;19.24
62942;BME280;49042;47.318;19.874;2023-04-30T08:54:35;100417.72;;;35.85;18.65
62942;BME280;49042;47.318;19.874;2023-04-30T08:57:37;100423.31;;;41.91;14.50
62942;BME280;49042;47.318;19.874;2023-04-30T09:00:39;100419.16;;;38.37;15.78
62942;BME280;49042;47.318;19.874;2023-04-30T09:03:41;100412.66;;;37.64;17.31
62942;BME280;49042;47.318;19.874;2023-04-30T09:06:43;100415.81;;;37.14;18.01
62942;BME280;49042;47.318;19.874;2023-04-30T09:09:44;100413.28;;;40.33;16.43
62942;BME280;49042;47.318;19.874;2023-04-30T09:13:02;100417.88;;;38.73;16.20
62942;BME280;49042;47.318;19.874;2023-04-30T09:16:04;100409.28;;;38.87;16.11
62942;BME280;49042;47.318;19.874;2023-04-30T09:19:06;100414.19;;;35.35;18.74
62942;BME280;49042;47.318;19.874;2023-04-30T09:22:26;100413.56;;;38.39;16.69
62942;BME280;49042;47.318;19.874;2023-04-30T09:25:40;100405.44;;;37.53;17.66
62942;BME280;49042;47.318;19.874;2023-04-30T09:28:54;100403.66;;;37.30;17.10
62942;BME280;49042;47.318;19.874;2023-04-30T09:32:07;100399.91;;;35.58;18.52
62942;BME280;49042;47.318;19.874;2023-04-30T09:35:30;100405.06;;;31.32;24.06
62942;BME280;49042;47.318;19.874;2023-04-30T09:38:32;100403.56;;;32.51;21.75
62942;BME280;49042;47.318;19.874;2023-04-30T09:41:34;100406.87;;;31.48;22.51
62942;BME280;49042;47.318;19.874;2023-04-30T09:44:38;100400.00;;;34.04;21.18
62942;BME280;49042;47.318;19.874;2023-04-30T09:47:40;100398.06;;;34.58;21.72
62942;BME280;49042;47.318;19.874;2023-04-30T09:50:41;100387.66;;;33.18;22.36
62942;BME280;49042;47.318;19.874;2023-04-30T09:53:44;100390.03;;;27.56;28.01
62942;BME280;49042;47.318;19.874;2023-04-30T09:56:46;100375.91;;;26.59;29.68
62942;BME280;49042;47.318;19.874;2023-04-30T09:59:49;100375.97;;;26.06;31.37
62942;BME280;49042;47.318;19.874;2023-04-30T10:02:53;100376.25;;;26.49;30.11
62942;BME280;49042;47.318;19.874;2023-04-30T10:05:55;100375.47;;;27.84;29.70
62942;BME280;49042;47.318;19.874;2023-04-30T10:08:57;100381.72;;;26.94;29.78
62942;BME280;49042;47.318;19.874;2023-04-30T10:11:59;100376.84;;;25.24;31.77
62942;BME280;49042;47.318;19.874;2023-04-30T10:15:12;100375.94;;;24.33;35.22
62942;BME280;49042;47.318;19.874;2023-04-30T10:18:38;100371.00;;;24.81;35.97
62942;BME280;49042;47.318;19.874;2023-04-30T10:21:45;100374.59;;;25.10;35.73
62942;BME280;49042;47.318;19.874;2023-04-30T10:24:47;100362.72;;;26.03;34.79
62942;BME280;49042;47.318;19.874;2023-04-30T10:27:50;100361.28;;;23.81;37.90
62942;BME280;49042;47.318;19.874;2023-04-30T10:30:52;100359.94;;;24.65;35.89
62942;BME280;49042;47.318;19.874;2023-04-30T10:40:39;100371.88;;;22.17;40.46
62942;BME280;49042;47.318;19.874;2023-04-30T10:43:40;100370.50;;;20.71;41.73
62942;BME280;49042;47.318;19.874;2023-04-30T10:46:45;100362.94;;;21.10;41.18
62942;BME280;49042;47.318;19.874;2023-04-30T10:49:48;100358.34;;;21.80;41.09
62942;BME280;49042;47.318;19.874;2023-04-30T10:53:04;100368.41;;;20.24;43.70
62942;BME280;49042;47.318;19.874;2023-04-30T10:56:07;100362.09;;;21.09;41.73
62942;BME280;49042;47.318;19.874;2023-04-30T10:59:09;100364.78;;;22.17;41.65
62942;BME280;49042;47.318;19.874;2023-04-30T11:02:15;100368.44;;;23.02;38.26
62942;BME280;49042;47.318;19.874;2023-04-30T11:05:18;100361.50;;;23.33;37.49
62942;BME280;49042;47.318;19.874;2023-04-30T11:08:31;100351.41;;;21.72;38.50
62942;BME280;49042;47.318;19.874;2023-04-30T11:11:33;100359.53;;;22.16;40.40
62942;BME280;49042;47.318;19.874;2023-04-30T11:14:39;100356.31;;;21.98;38.96
62942;BME280;49042;47.318;19.874;2023-04-30T11:17:43;100356.91;;;20.96;39.53
62942;BME280;49042;47.318;19.874;2023-04-30T11:20:50;100358.22;;;20.64;39.64
62942;BME280;49042;47.318;19.874;2023-04-30T11:24:02;100354.16;;;21.04;38.94
62942;BME280;49042;47.318;19.874;2023-04-30T11:27:04;100351.97;;;21.35;39.00
62942;BME280;49042;47.318;19.874;2023-04-30T11:30:11;100352.69;;;21.48;40.57
62942;BME280;49042;47.318;19.874;2023-04-30T11:33:16;100348.56;;;20.60;40.38
62942;BME280;49042;47.318;19.874;2023-04-30T11:36:18;100351.72;;;20.08;42.83
62942;BME280;49042;47.318;19.874;2023-04-30T11:39:23;100345.25;;;21.10;41.72
62942;BME280;49042;47.318;19.874;2023-04-30T11:42:25;100354.81;;;20.54;41.71
62942;BME280;49042;47.318;19.874;2023-04-30T11:45:26;100350.28;;;20.62;42.26
62942;BME280;49042;47.318;19.874;2023-04-30T11:48:36;100355.19;;;20.18;40.44
62942;BME280;49042;47.318;19.874;2023-04-30T11:51:40;100346.25;;;21.00;39.71
62942;BME280;49042;47.318;19.874;2023-04-30T11:54:41;100348.09;;;22.10;38.78
62942;BME280;49042;47.318;19.874;2023-04-30T11:57:45;100349.81;;;22.59;36.99
62942;BME280;49042;47.318;19.874;2023-04-30T12:00:47;100350.88;;;22.04;37.69
62942;BME280;49042;47.318;19.874;2023-04-30T12:03:50;100349.94;;;20.91;39.68
62942;BME280;49042;47.318;19.874;2023-04-30T12:06:53;100348.94;;;20.25;40.33
62942;BME280;49042;47.318;19.874;2023-04-30T12:09:55;100344.63;;;20.89;39.42
62942;BME280;49042;47.318;19.874;2023-04-30T12:12:58;100350.13;;;20.76;39.96
62942;BME280;49042;47.318;19.874;2023-04-30T12:16:00;100349.19;;;20.79;40.58
62942;BME280;49042;47.318;19.874;2023-04-30T12:19:02;100344.81;;;20.76;40.08
62942;BME280;49042;47.318;19.874;2023-04-30T12:22:04;100347.62;;;20.64;40.03
62942;BME280;49042;47.318;19.874;2023-04-30T12:25:16;100347.41;;;20.00;40.78
62942;BME280;49042;47.318;19.874;2023-04-30T12:28:19;100344.81;;;19.96;40.49
62942;BME280;49042;47.318;19.874;2023-04-30T12:31:23;100347.72;;;19.67;41.77
62942;BME280;49042;47.318;19.874;2023-04-30T12:34:25;100345.09;;;19.64;42.44
62942;BME280;49042;47.318;19.874;2023-04-30T12:37:27;100338.63;;;20.76;40.19
62942;BME280;49042;47.318;19.874;2023-04-30T12:40:29;100338.75;;;21.33;37.36
62942;BME280;49042;47.318;19.874;2023-04-30T12:43:31;100345.31;;;21.66;37.37
62942;BME280;49042;47.318;19.874;2023-04-30T12:46:32;100344.38;;;21.67;38.88
62942;BME280;49042;47.318;19.874;2023-04-30T12:49:34;100342.72;;;21.01;39.01
62942;BME280;49042;47.318;19.874;2023-04-30T12:52:38;100334.88;;;20.94;39.03
62942;BME280;49042;47.318;19.874;2023-04-30T12:55:40;100333.06;;;20.98;39.64
62942;BME280;49042;47.318;19.874;2023-04-30T12:58:44;100340.03;;;21.64;36.91
62942;BME280;49042;47.318;19.874;2023-04-30T13:01:51;100334.28;;;21.37;37.36
62942;BME280;49042;47.318;19.874;2023-04-30T13:04:55;100328.06;;;21.92;37.04
62942;BME280;49042;47.318;19.874;2023-04-30T13:08:01;100323.56;;;20.78;39.35
62942;BME280;49042;47.318;19.874;2023-04-30T13:11:03;100319.94;;;20.87;40.42
62942;BME280;49042;47.318;19.874;2023-04-30T13:14:04;100313.72;;;20.91;39.36
62942;BME280;49042;47.318;19.874;2023-04-30T13:17:07;100308.00;;;20.54;39.65
62942;BME280;49042;47.318;19.874;2023-04-30T13:20:10;100311.47;;;20.60;39.54
62942;BME280;49042;47.318;19.874;2023-04-30T13:23:12;100297.97;;;21.40;37.98
62942;BME280;49042;47.318;19.874;2023-04-30T13:26:14;100294.37;;;21.45;38.08
62942;BME280;49042;47.318;19.874;2023-04-30T13:29:15;100302.81;;;21.67;37.77
62942;BME280;49042;47.318;19.874;2023-04-30T13:32:17;100306.97;;;21.28;38.16
62942;BME280;49042;47.318;19.874;2023-04-30T13:35:19;100307.06;;;21.78;37.22
62942;BME280;49042;47.318;19.874;2023-04-30T13:38:21;100306.22;;;22.68;36.28
62942;BME280;49042;47.318;19.874;2023-04-30T13:41:23;100314.81;;;24.57;33.68
62942;BME280;49042;47.318;19.874;2023-04-30T13:44:26;100310.63;;;25.36;32.13
62942;BME280;49042;47.318;19.874;2023-04-30T13:47:28;100319.78;;;24.39;33.15
62942;BME280;49042;47.318;19.874;2023-04-30T13:50:30;100317.91;;;23.00;36.75
62942;BME280;49042;47.318;19.874;2023-04-30T13:53:31;100310.50;;;21.83;38.06
62942;BME280;49042;47.318;19.874;2023-04-30T13:56:33;100325.75;;;21.14;40.46
62942;BME280;49042;47.318;19.874;2023-04-30T13:59:35;100321.94;;;21.34;39.06
62942;BME280;49042;47.318;19.874;2023-04-30T14:02:37;100333.16;;;21.50;39.30
62942;BME280;49042;47.318;19.874;2023-04-30T14:05:38;100344.84;;;19.91;44.54
62942;BME280;49042;47.318;19.874;2023-04-30T14:08:40;100345.63;;;18.70;49.98
62942;BME280;49042;47.318;19.874;2023-04-30T14:11:42;100343.22;;;17.77;57.58
62942;BME280;49042;47.318;19.874;2023-04-30T14:14:43;100344.91;;;17.20;63.39
62942;BME280;49042;47.318;19.874;2023-04-30T14:17:45;100351.81;;;16.89;65.98
62942;BME280;49042;47.318;19.874;2023-04-30T14:20:47;100341.22;;;16.64;68.94
62942;BME280;49042;47.318;19.874;2023-04-30T14:23:49;100348.16;;;16.50;71.90
62942;BME280;49042;47.318;19.874;2023-04-30T14:26:52;100354.25;;;16.37;74.21
62942;BME280;49042;47.318;19.874;2023-04-30T14:29:54;100364.69;;;16.26;76.61
62942;BME280;49042;47.318;19.874;2023-04-30T14:32:56;100362.06;;;16.26;77.84
62942;BME280;49042;47.318;19.874;2023-04-30T14:35:58;100364.00;;;16.62;76.07
62942;BME280;49042;47.318;19.874;2023-04-30T14:39:03;100364.81;;;16.47;78.05
62942;BME280;49042;47.318;19.874;2023-04-30T14:42:05;100368.34;;;16.52;78.73
62942;BME280;49042;47.318;19.874;2023-04-30T14:45:07;100366.53;;;16.40;79.51
62942;BME280;49042;47.318;19.874;2023-04-30T14:48:10;100366.41;;;16.16;81.96
62942;BME280;49042;47.318;19.874;2023-04-30T14:51:12;100367.38;;;16.33;81.88
62942;BME280;49042;47.318;19.874;2023-04-30T14:54:14;100370.00;;;16.28;81.77
62942;BME280;49042;47.318;19.874;2023-04-30T14:57:16;100361.16;;;16.20;82.13
62942;BME280;49042;47.318;19.874;2023-04-30T15:00:18;100369.94;;;16.23;80.21
62942;BME280;49042;47.318;19.874;2023-04-30T15:03:19;100372.63;;;16.31;80.61
62942;BME280;49042;47.318;19.874;2023-04-30T15:06:22;100359.50;;;16.41;79.81
62942;BME280;49042;47.318;19.874;2023-04-30T15:09:23;100363.84;;;16.27;80.48
62942;BME280;49042;47.318;19.874;2023-04-30T15:12:25;100369.97;;;16.26;81.34
62942;BME280;49042;47.318;19.874;2023-04-30T15:15:27;100373.56;;;16.41;80.14
62942;BME280;49042;47.318;19.874;2023-04-30T15:18:30;100375.31;;;16.41;79.80
62942;BME280;49042;47.318;19.874;2023-04-30T15:21:32;100375.25;;;16.31;79.27
62942;BME280;49042;47.318;19.874;2023-04-30T15:24:34;100372.66;;;16.34;78.81
62942;BME280;49042;47.318;19.874;2023-04-30T15:27:36;100373.59;;;16.43;78.87
62942;BME280;49042;47.318;19.874;2023-04-30T15:30:39;100370.97;;;16.49;78.50
62942;BME280;49042;47.318;19.874;2023-04-30T15:33:41;100374.44;;;16.43;76.91
62942;BME280;49042;47.318;19.874;2023-04-30T15:36:42;100379.72;;;16.45;76.13
62942;BME280;49042;47.318;19.874;2023-04-30T15:39:44;100380.56;;;16.37;77.01
62942;BME280;49042;47.318;19.874;2023-04-30T15:42:49;100371.72;;;16.29;76.62
62942;BME280;49042;47.318;19.874;2023-04-30T15:45:51;100381.41;;;16.33;75.16
62942;BME280;49042;47.318;19.874;2023-04-30T15:48:53;100384.91;;;16.31;74.89
62942;BME280;49042;47.318;19.874;2023-04-30T15:51:55;100385.69;;;16.14;76.31
62942;BME280;49042;47.318;19.874;2023-04-30T15:54:56;100390.91;;;16.12;74.46
62942;BME280;49042;47.318;19.874;2023-04-30T15:57:58;100396.19;;;16.11;74.49
62942;BME280;49042;47.318;19.874;2023-04-30T16:01:00;100405.09;;;16.32;73.49